Weather observations for the past three days for
Salida - Monarch Pass
Imperial (Metric)
Date Time (mdt) Wind (mph) Vis. (mi.) Weather Sky Cond. Temperature (ºF) Relative Humidity Wind Chill (°F) Heat Index (°F) Pressure Precipitation (in)
Air Dwpt 6 hour altimeter (in) sea level (mb) 1 hr 3 hr 6 hr
Max. Min.
05 11:55 W 13 G 20 10.00 Fair CLR 55.4 33.8 44% 30.77 0.0
05 11:35 W 16 G 24 10.00 Fair CLR 55.4 33.8 44% 30.78 0.0
05 11:15 W 18 10.00 Fair CLR 53.6 33.8 47% 30.77 0.0
05 10:55 W 18 G 22 10.00 Fair CLR 53.6 33.8 47% 30.77 0.0
05 10:35 NW 14 10.00 Fair CLR 53.6 33.8 47% 30.77 0.0
05 10:15 NW 12 10.00 Fair CLR 51.8 33.8 50% 30.77 0.0
05 09:55 NW 12 G 16 10.00 Fair CLR 51.8 33.8 50% 30.77 0.0
05 09:35 NW 14 10.00 Fair CLR 50 35.6 58% 45 30.76 0.0
05 09:15 W 12 10.00 Fair CLR 50 35.6 58% 46 30.76 0.0
05 08:55 NW 12 10.00 Fair CLR 48.2 35.6 62% 44 30.76 0.0
05 08:35 NW 13 10.00 Fair CLR 46.4 33.8 62% 41 30.75 0.0
05 08:15 NW 15 10.00 Partly Cloudy SCT060 46.4 33.8 62% 41 30.75 0.0
05 07:55 NW 14 10.00 Partly Cloudy SCT060 46.4 33.8 62% 41 30.75 0.0
05 07:35 NW 16 10.00 Partly Cloudy SCT060 44.6 33.8 66% 38 30.74 0.0
05 07:15 NW 18 10.00 Fair CLR 44.6 33.8 66% 37 30.74 0.0
05 06:55 W 14 10.00 Partly Cloudy SCT060 SCT070 44.6 33.8 66% 39 30.73 0.0
05 06:35 NW 17 10.00 Partly Cloudy SCT060 44.6 32 61% 38 30.72 0.0
05 06:15 W 15 10.00 Partly Cloudy SCT070 46.4 32 57% 41 30.72 0.0
05 05:55 NW 16 10.00 Partly Cloudy SCT070 44.6 32 61% 38 30.72 0.0
05 05:35 NW 16 10.00 Fair CLR 46.4 32 57% 40 30.72 0.0
05 05:15 NW 16 10.00 Partly Cloudy SCT065 46.4 33.8 62% 40 30.72 0.0
05 04:55 NW 17 10.00 Fair CLR 44.6 35.6 71% 38 30.72 0.0
05 04:35 W 17 10.00 Fair CLR 44.6 35.6 71% 38 30.72 0.0
05 04:15 NW 17 10.00 Fair CLR 46.4 35.6 66% 40 30.72 0.0
05 03:55 W 15 10.00 Fair CLR 46.4 33.8 62% 41 30.72 0.0
05 03:35 W 14 10.00 Fair CLR 46.4 35.6 66% 41 30.72 0.0
05 03:15 W 14 10.00 Fair CLR 46.4 35.6 66% 41 30.72 0.0
05 02:55 W 15 10.00 Fair CLR 46.4 33.8 62% 41 30.72 0.0
05 02:35 NW 16 10.00 Fair CLR 46.4 35.6 66% 40 30.72 0.0
05 02:15 W 14 10.00 Fair CLR 46.4 35.6 66% 41 30.72 0.0
05 01:55 W 16 10.00 Fair CLR 46.4 35.6 66% 40 30.72 0.0
05 01:35 W 15 10.00 Fair CLR 46.4 35.6 66% 41 30.72 0.0
05 01:15 W 16 10.00 Fair CLR 48.2 35.6 62% 43 30.72 0.0
05 00:55 W 15 10.00 Fair CLR 48.2 33.8 58% 43 30.72 0.0
05 00:35 W 15 10.00 Fair CLR 50 33.8 54% 45 30.72 0.0
05 00:15 W 17 10.00 Fair CLR 50 33.8 54% 45 30.72 0.0
04 23:55 W 14 10.00 Fair CLR 50 35.6 58% 45 30.72 0.0
04 23:35 W 14 10.00 Fair CLR 50 35.6 58% 45 30.72 0.0
04 23:15 W 15 10.00 Fair CLR 50 35.6 58% 45 30.72 0.0
04 22:55 W 15 10.00 Fair CLR 50 35.6 58% 45 30.72 0.0
04 22:35 W 13 10.00 Fair CLR 50 35.6 58% 46 30.72 0.0
04 22:15 W 13 10.00 Fair CLR 50 35.6 58% 46 30.73 0.0
04 21:55 W 16 10.00 Fair CLR 51.8 33.8 50% 30.73 0.0
04 21:35 NW 15 10.00 Fair CLR 51.8 33.8 50% 30.73 0.0
04 21:15 W 17 10.00 Fair CLR 51.8 33.8 50% 30.72 0.0
04 20:55 W 17 10.00 Fair CLR 53.6 33.8 47% 30.71 0.0
04 20:35 W 13 10.00 Fair CLR 53.6 33.8 47% 30.72 0.0
04 20:15 W 12 10.00 Fair CLR 53.6 33.8 47% 30.71 0.0
04 19:55 W 20 10.00 Fair CLR 53.6 33.8 47% 30.69 0.0
04 19:35 W 13 10.00 Partly Cloudy SCT090 55.4 33.8 44% 30.7 0.0
04 19:15 W 12 G 17 10.00 Partly Cloudy SCT090 57.2 32 39% 30.7 0.0
04 18:55 NW 12 10.00 Fair CLR 59 32 36% 30.7 0.0
04 18:35 W 17 10.00 Fair CLR 60.8 32 34% 30.69 0.0
04 18:15 NW 15 10.00 Partly Cloudy SCT090 60.8 32 34% 30.69 0.0
04 17:55 W 14 G 18 10.00 Mostly Cloudy BKN090 BKN120 62.6 33.8 34% 30.69 0.0
04 17:35 NW 14 G 17 10.00 Partly Cloudy SCT080 SCT110 62.6 35.6 37% 30.69 0.0
04 17:15 W 13 G 18 10.00 Fair CLR 59 33.8 39% 30.69 0.0
04 16:55 NW 14 G 18 10.00 Partly Cloudy SCT100 60.8 33.8 36% 30.7 0.0
04 16:35 W 9 G 20 10.00 Overcast SCT055 SCT070 OVC090 60.8 32 34% 30.7 0.0
04 16:15 W 22 G 29 10.00 Overcast and Breezy SCT055 SCT070 OVC090 55.4 35.6 47% 30.69 0.0
04 15:55 W 18 G 24 10.00 Mostly Cloudy BKN090 59 33.8 39% 30.69 0.0
04 15:35 NW 17 G 22 10.00 Mostly Cloudy SCT060 SCT070 BKN100 59 33.8 39% 30.69 0.0
04 15:15 W 17 G 21 10.00 Partly Cloudy SCT050 SCT060 SCT090 60.8 35.6 39% 30.7 0.0
04 14:55 NW 16 G 22 10.00 Mostly Cloudy SCT047 SCT060 BKN090 60.8 35.6 39% 30.7 0.0
04 14:35 NW 17 G 21 10.00 Mostly Cloudy SCT044 BKN050 BKN070 55.4 35.6 47% 30.71 0.0
04 14:15 NW 14 G 22 10.00 Mostly Cloudy BKN044 BKN050 59 35.6 42% 30.72 0.0
04 13:55 W 14 G 25 10.00 Fair CLR 59 35.6 42% 30.71 0.0
04 13:35 NW 16 G 25 10.00 Fair CLR 59 35.6 42% 30.72 0.0
04 13:15 NW 17 G 23 10.00 Partly Cloudy SCT042 59 35.6 42% 30.72 0.0
04 12:55 W 21 G 28 10.00 Partly Cloudy and Breezy SCT042 57.2 35.6 44% 30.72 0.0
04 12:35 W 22 G 29 10.00 Partly Cloudy and Breezy SCT050 55.4 35.6 47% 30.72 0.0
04 12:15 W 18 G 29 10.00 Mostly Cloudy SCT036 BKN050 55.4 35.6 47% 30.72 0.0
04 11:55 NW 18 G 23 10.00 Partly Cloudy SCT036 SCT050 55.4 35.6 47% 30.73 0.0
04 11:35 W 18 G 23 10.00 Partly Cloudy SCT050 53.6 35.6 51% 30.73 0.0
04 11:15 W 23 10.00 Partly Cloudy and Breezy SCT050 53.6 35.6 51% 30.72 0.0
04 10:55 W 21 G 26 10.00 Fair and Breezy CLR 51.8 35.6 54% 30.72 0.0
04 10:35 W 18 G 25 10.00 Fair CLR 51.8 35.6 54% 30.72 0.0
04 10:15 W 16 G 23 10.00 Partly Cloudy SCT041 SCT047 51.8 35.6 54% 30.71 0.0
04 09:55 W 23 10.00 Partly Cloudy and Breezy SCT039 SCT044 50 37.4 62% 44 30.7 0.0
04 09:35 W 26 G 30 10.00 Partly Cloudy and Windy SCT044 50 37.4 62% 43 30.69 0.0
04 09:15 W 24 10.00 Fair and Breezy CLR 50 35.6 58% 43 30.69 0.0
04 08:55 W 23 10.00 Partly Cloudy and Breezy SCT041 46.4 35.6 66% 39 30.69 0.0
04 08:35 W 24 10.00 Fair and Breezy CLR 46.4 35.6 66% 39 30.68 0.0
04 08:15 W 25 G 30 10.00 Fair and Breezy CLR 46.4 35.6 66% 38 30.68 0.0
04 07:55 W 21 G 26 10.00 Fair and Breezy CLR 44.6 35.6 71% 37 30.67 0.0
04 07:35 W 24 10.00 Fair and Breezy CLR 44.6 35.6 71% 36 30.66 0.0
04 07:15 W 24 10.00 Fair and Breezy CLR 44.6 33.8 66% 36 30.66 0.0
04 06:55 W 21 10.00 Fair and Breezy CLR 44.6 33.8 66% 37 30.65 0.0
04 06:35 W 20 10.00 Fair CLR 44.6 32 61% 37 30.64 0.0
04 06:15 W 22 10.00 Fair and Breezy CLR 44.6 33.8 66% 37 30.64 0.0
04 05:55 W 25 10.00 Fair and Breezy CLR 44.6 32 61% 36 30.63 0.0
04 05:35 W 24 10.00 Fair and Breezy CLR 44.6 32 61% 36 30.63 0.0
04 05:15 W 21 10.00 Fair and Breezy CLR 44.6 32 61% 37 30.64 0.0
04 04:55 W 22 10.00 Fair and Breezy CLR 44.6 32 61% 37 30.64 0.0
04 04:35 W 22 10.00 Partly Cloudy and Breezy SCT035 44.6 32 61% 37 30.64 0.0
04 04:15 W 21 10.00 Partly Cloudy and Breezy SCT035 44.6 30.2 57% 37 30.64 0.0
04 03:55 W 22 10.00 Fair and Breezy CLR 44.6 28.4 53% 37 30.64 0.0
04 03:35 W 23 10.00 Fair and Breezy CLR 44.6 30.2 57% 37 30.64 0.0
04 03:15 W 25 10.00 Fair and Breezy CLR 44.6 30.2 57% 36 30.63 0.0
04 02:55 W 24 10.00 Fair and Breezy CLR 46.4 28.4 50% 39 30.64 0.0
04 02:35 W 22 10.00 Fair and Breezy CLR 46.4 28.4 50% 39 30.64 0.0
04 02:15 W 28 10.00 Fair and Windy CLR 46.4 28.4 50% 38 30.64 0.0
04 01:55 W 32 10.00 Fair and Windy CLR 46.4 28.4 50% 37 30.64 0.0
04 01:35 W 31 10.00 Fair and Windy CLR 46.4 28.4 50% 38 30.64 0.0
04 01:15 W 31 10.00 Fair and Windy CLR 46.4 28.4 50% 38 30.64 0.0
04 00:55 W 24 G 30 10.00 Fair and Breezy CLR 46.4 28.4 50% 39 30.65 0.0
04 00:35 W 24 10.00 Fair and Breezy CLR 46.4 28.4 50% 39 30.65 0.0
04 00:15 NW 21 10.00 Fair and Breezy CLR 46.4 28.4 50% 39 30.65 0.0
03 23:55 W 23 10.00 Fair and Breezy CLR 46.4 26.6 46% 39 30.66 0.0
03 23:35 W 17 10.00 Fair CLR 48.2 26.6 43% 42 30.66 0.0
03 23:15 W 20 10.00 Fair CLR 48.2 26.6 43% 42 30.66 0.0
03 22:55 W 17 10.00 Fair CLR 48.2 26.6 43% 42 30.66 0.0
03 22:35 W 17 10.00 Fair CLR 50 26.6 40% 45 30.66 0.0
03 22:15 W 16 10.00 Fair CLR 50 26.6 40% 45 30.67 0.0
03 21:55 W 17 10.00 Fair CLR 50 26.6 40% 45 30.67 0.0
03 21:35 W 14 10.00 Fair CLR 50 26.6 40% 45 30.67 0.0
03 21:15 W 17 10.00 Partly Cloudy SCT070 51.8 26.6 38% 30.66 0.0
03 20:55 W 18 10.00 Partly Cloudy SCT070 51.8 26.6 38% 30.66 0.0
03 20:35 W 16 10.00 Partly Cloudy SCT070 53.6 26.6 35% 30.65 0.0
03 20:15 W 13 G 16 10.00 Partly Cloudy SCT070 53.6 26.6 35% 30.64 0.0
03 19:55 W 10 10.00 Fair CLR 53.6 26.6 35% 30.64 0.0
03 19:35 W 16 10.00 Fair CLR 55.4 28.4 36% 30.64 0.0
03 19:15 NW 16 10.00 Fair CLR 57.2 28.4 33% 30.64 0.0
03 18:55 NW 16 G 22 10.00 Fair CLR 59 28.4 31% 30.64 0.0
03 18:35 W 17 10.00 Fair CLR 60.8 28.4 29% 30.64 0.0
03 18:15 W 16 G 23 10.00 Fair CLR 60.8 26.6 27% 30.64 0.0
03 17:55 W 16 G 24 10.00 Partly Cloudy SCT085 60.8 28.4 29% 30.64 0.0
03 17:35 W 20 G 23 10.00 Partly Cloudy SCT085 62.6 30.2 30% 30.64 0.0
03 17:15 W 14 G 28 10.00 Fair CLR 60.8 28.4 29% 30.64 0.0
03 16:55 W 21 G 30 10.00 Fair and Breezy CLR 62.6 28.4 27% 30.64 0.0
03 16:35 W 15 G 30 10.00 Partly Cloudy SCT070 60.8 26.6 27% 30.64 0.0
03 16:15 W 22 G 28 10.00 Partly Cloudy and Breezy SCT070 62.6 28.4 27% 30.64 0.0
03 15:55 W 16 G 23 10.00 Fair CLR 62.6 28.4 27% 30.64 0.0
03 15:35 W 23 G 29 10.00 Partly Cloudy and Breezy SCT060 60.8 30.2 31% 30.64 0.0
03 15:15 NW 22 G 25 10.00 Partly Cloudy and Breezy SCT060 60.8 32 34% 30.65 0.0
03 14:55 W 14 G 22 10.00 Mostly Cloudy BKN050 60.8 32 34% 30.66 0.0
03 14:35 SW 13 G 18 10.00 Mostly Cloudy BKN050 55.4 32 41% 30.66 0.0
03 14:15 SW 21 G 30 10.00 Partly Cloudy and Breezy SCT050 59 32 36% 30.66 0.0
03 13:55 W 20 G 30 10.00 Fair CLR 55.4 32 41% 30.66 0.0
03 13:35 SW 21 G 33 10.00 Fair and Breezy CLR 55.4 32 41% 30.66 0.0
03 13:15 W 21 G 28 10.00 Fair and Breezy CLR 55.4 33.8 44% 30.66 0.0
03 12:55 W 17 G 30 10.00 Fair CLR 55.4 33.8 44% 30.67 0.0
03 12:35 W 20 G 33 10.00 Fair CLR 53.6 33.8 47% 30.67 0.0
03 12:15 W 22 10.00 Fair and Breezy CLR 53.6 33.8 47% 30.68 0.0
03 11:55 W 23 G 30 10.00 Fair and Breezy CLR 51.8 33.8 50% 30.68 0.0
03 11:35 W 26 G 31 10.00 Fair and Windy CLR 51.8 33.8 50% 30.68 0.0
03 11:15 W 25 G 31 10.00 Fair and Breezy CLR 50 33.8 54% 43 30.67 0.0
03 10:55 W 23 G 30 10.00 Fair and Breezy CLR 48.2 33.8 58% 41 30.67 0.0
03 10:35 W 20 G 31 10.00 Partly Cloudy SCT022 46.4 35.6 66% 40 30.67 0.0
03 10:15 W 21 G 29 10.00 Partly Cloudy and Breezy SCT020 46.4 35.6 66% 39 30.66 0.0
03 09:55 W 22 G 32 10.00 Fair and Breezy CLR 44.6 35.6 71% 37 30.66 0.0
03 09:35 W 30 G 35 10.00 Fair and Windy CLR 44.6 33.8 66% 35 30.65 0.0
03 09:15 NW 26 G 35 10.00 Fair and Windy CLR 42.8 33.8 71% 34 30.65 0.0
03 08:55 W 24 G 30 10.00 Fair and Breezy CLR 42.8 35.6 76% 34 30.65 0.0
03 08:35 W 26 G 32 10.00 Fair and Windy CLR 41 35.6 81% 31 30.64 0.0
03 08:15 W 21 G 30 10.00 Fair and Breezy CLR 41 35.6 81% 32 30.64 0.0
03 07:56 W 31 G 35 10.00 Fair and Windy CLR 41 35.6 81% 30 30.63 0.0
03 07:35 W 29 G 33 10.00 Fair and Windy CLR 41 33.8 76% 31 30.62 0.0
03 07:15 W 32 10.00 Fair and Windy CLR 41 33.8 76% 30 30.62 0.0
03 06:55 W 26 G 32 10.00 Fair and Windy CLR 41 33.8 76% 31 30.61 0.0
03 06:35 W 26 G 35 10.00 Fair and Windy CLR 41 33.8 76% 31 30.61 0.0
03 06:15 W 28 10.00 Fair and Windy CLR 41 33.8 76% 31 30.61 0.0
03 05:55 W 26 G 31 10.00 Partly Cloudy and Windy SCT039 39.2 33.8 81% 29 30.6 0.0
03 05:35 W 23 10.00 Fair and Breezy CLR 41 33.8 76% 32 30.61 0.0
03 05:15 W 28 10.00 Fair and Windy CLR 41 33.8 76% 31 30.61 0.0
03 04:55 W 22 10.00 Partly Cloudy and Breezy SCT041 41 33.8 76% 32 30.61 0.0
03 04:35 W 28 10.00 Mostly Cloudy and Windy BKN045 41 33.8 76% 31 30.61 0.0
03 04:15 W 25 G 31 10.00 Mostly Cloudy and Breezy BKN048 42.8 33.8 71% 34 30.62 0.0
03 03:55 W 32 10.00 Mostly Cloudy and Windy BKN050 42.8 33.8 71% 33 30.61 0.0
03 03:35 W 36 10.00 Partly Cloudy and Windy SCT055 42.8 33.8 71% 32 30.61 0.0
03 03:15 W 36 10.00 Fair and Windy CLR 42.8 33.8 71% 32 30.61 0.0
03 02:55 W 29 G 35 10.00 Fair and Windy CLR 42.8 33.8 71% 33 30.62 0.0
03 02:35 W 28 G 31 10.00 Fair and Windy CLR 42.8 33.8 71% 33 30.62 0.0
03 02:15 W 28 10.00 Fair and Windy CLR 42.8 33.8 71% 33 30.63 0.0
03 01:55 W 29 G 35 10.00 Fair and Windy CLR 42.8 33.8 71% 33 30.64 0.0
03 01:35 W 29 10.00 Fair and Windy CLR 42.8 33.8 71% 33 30.64 0.0
03 01:15 W 28 G 33 10.00 Fair and Windy CLR 42.8 33.8 71% 33 30.64 0.0
03 00:55 W 29 10.00 Fair and Windy CLR 44.6 33.8 66% 36 30.64 0.0
03 00:35 W 33 10.00 Fair and Windy CLR 44.6 33.8 66% 35 30.64 0.0
03 00:15 W 32 10.00 Fair and Windy CLR 44.6 33.8 66% 35 30.64 0.0
02 23:55 W 31 10.00 Fair and Windy CLR 44.6 33.8 66% 35 30.65 0.0
02 23:35 W 31 10.00 Fair and Windy CLR 44.6 33.8 66% 35 30.65 0.0
02 23:15 W 31 10.00 Fair and Windy CLR 44.6 33.8 66% 35 30.65 0.0
02 22:55 W 26 10.00 Fair and Windy CLR 44.6 33.8 66% 36 30.66 0.0
02 22:35 W 24 G 28 10.00 Fair and Breezy CLR 44.6 33.8 66% 36 30.66 0.0
02 22:15 W 24 10.00 Fair and Breezy CLR 44.6 33.8 66% 36 30.66 0.0
02 21:55 W 25 10.00 Partly Cloudy and Breezy SCT065 44.6 35.6 71% 36 30.66 0.0
02 21:35 W 20 10.00 Mostly Cloudy BKN065 BKN080 BKN100 44.6 35.6 71% 37 30.68 0.0
02 21:15 W 29 10.00 Partly Cloudy and Windy SCT080 44.6 33.8 66% 36 30.66 0.0
02 20:55 NW 22 10.00 Fair and Breezy CLR 46.4 33.8 62% 39 30.66 0.0
02 20:35 NW 21 10.00 Fair and Breezy CLR 46.4 33.8 62% 39 30.66 0.0
02 20:15 NW 24 10.00 Partly Cloudy and Breezy SCT046 SCT060 SCT070 44.6 35.6 71% 36 30.66 0.0
02 19:55 NW 24 G 28 10.00 Light Drizzle and Breezy SCT033 BKN048 OVC070 46.4 37.4 71% 39 30.66 0.0
02 19:35 NW 29 G 36 10.00 Drizzle and Windy SCT036 BKN045 OVC060 48.2 35.6 62% 40 30.66 0.0
02 19:15 W 25 G 30 10.00 Mostly Cloudy and Breezy SCT050 BKN055 BKN070 50 33.8 54% 43 30.66 0.0
02 18:55 NW 30 G 39 10.00 Partly Cloudy and Windy SCT100 50 33.8 54% 43 30.65 0.0
02 18:35 W 26 G 37 10.00 Fair and Windy CLR 51.8 33.8 50% 30.65 0.0
02 18:15 NW 22 G 32 10.00 Partly Cloudy and Breezy SCT060 53.6 32 44% 30.64 0.0
02 17:55 W 25 G 30 10.00 Partly Cloudy and Breezy SCT050 55.4 32 41% 30.65 0.0
02 17:35 W 16 G 26 10.00 Partly Cloudy SCT055 SCT070 59 32 36% 30.65 0.0
02 17:15 W 18 10.00 Mostly Cloudy BKN055 BKN070 59 32 36% 30.64 0.0
02 16:55 W 23 G 30 10.00 Overcast and Breezy OVC055 57.2 32 39% 30.65 0.0
02 16:35 SW 13 G 18 10.00 Mostly Cloudy SCT055 BKN070 BKN080 59 32 36% 30.65 0.0
02 16:15 W 13 G 25 10.00 Partly Cloudy SCT050 SCT065 SCT075 59 32 36% 30.66 0.0
02 15:55 W 17 G 21 10.00 Partly Cloudy SCT050 SCT080 59 32 36% 30.66 0.0
02 15:35 W 17 G 28 10.00 Mostly Cloudy SCT050 BKN075 57.2 32 39% 30.67 0.0
02 15:15 SW 20 G 28 10.00 Overcast BKN049 OVC065 59 32 36% 30.67 0.0
02 14:55 W 21 10.00 Mostly Cloudy and Breezy SCT049 BKN065 BKN075 55.4 32 41% 30.68 0.0
02 14:35 W 16 G 26 10.00 Mostly Cloudy SCT050 SCT065 BKN075 55.4 32 41% 30.69 0.0
02 14:15 NW 17 G 23 10.00 Mostly Cloudy BKN050 BKN070 55.4 33.8 44% 30.69 0.0
02 13:55 W 18 G 26 10.00 Mostly Cloudy SCT050 SCT060 BKN070 57.2 32 39% 30.69 0.0
02 13:35 W 17 G 24 10.00 Mostly Cloudy SCT048 SCT055 BKN070 57.2 33.8 41% 30.69 0.0
02 13:15 NW 21 G 26 10.00 Mostly Cloudy and Breezy BKN050 BKN065 55.4 33.8 44% 30.71 0.0
02 12:55 W 16 G 30 10.00 Partly Cloudy SCT048 SCT055 55.4 32 41% 30.71 0.0
02 12:35 NW 21 G 25 10.00 Partly Cloudy and Breezy SCT046 55.4 32 41% 30.71 0.0
Date Time (mdt) Wind (mph) Vis. (mi.) Weather Sky Cond. Air Dwpt Max. Min. Relative Humidity Wind Chill (°F) Heat Index (°F) altimeter (in) sea level (mb) 1 hr 3 hr 6 hr
6 hour
Temperature (ºF) Pressure Precipitation (in)